sensor_id;sensor_type;location;lat;lon;timestamp;pressure;altitude;pressure_sealevel;temperature
66604;BMP280;53460;39.612;8.822;2022-07-03T00:02:08;100094.13;;;25.82
66604;BMP280;53460;39.612;8.822;2022-07-03T00:04:34;100066.28;;;25.69
66604;BMP280;53460;39.612;8.822;2022-07-03T00:07:00;100024.69;;;25.65
66604;BMP280;53460;39.612;8.822;2022-07-03T00:09:25;100005.56;;;25.63
66604;BMP280;53460;39.612;8.822;2022-07-03T00:11:51;99980.19;;;25.70
66604;BMP280;53460;39.612;8.822;2022-07-03T00:14:17;99970.72;;;25.63
66604;BMP280;53460;39.612;8.822;2022-07-03T00:16:43;99957.69;;;25.66
66604;BMP280;53460;39.612;8.822;2022-07-03T00:19:09;99957.78;;;25.62
66604;BMP280;53460;39.612;8.822;2022-07-03T00:21:38;99936.16;;;25.43
66604;BMP280;53460;39.612;8.822;2022-07-03T00:24:25;99924.53;;;25.45
66604;BMP280;53460;39.612;8.822;2022-07-03T00:26:52;99925.88;;;25.48
66604;BMP280;53460;39.612;8.822;2022-07-03T00:29:22;99920.34;;;25.50
66604;BMP280;53460;39.612;8.822;2022-07-03T00:31:48;99935.94;;;25.60
66604;BMP280;53460;39.612;8.822;2022-07-03T00:34:16;99923.03;;;25.54
66604;BMP280;53460;39.612;8.822;2022-07-03T00:36:45;99919.59;;;25.55
66604;BMP280;53460;39.612;8.822;2022-07-03T00:39:11;99899.94;;;25.47
66604;BMP280;53460;39.612;8.822;2022-07-03T00:41:37;99891.75;;;25.47
66604;BMP280;53460;39.612;8.822;2022-07-03T00:44:03;99889.09;;;25.41
66604;BMP280;53460;39.612;8.822;2022-07-03T00:46:29;99892.41;;;25.47
66604;BMP280;53460;39.612;8.822;2022-07-03T00:48:56;99912.78;;;25.54
66604;BMP280;53460;39.612;8.822;2022-07-03T00:51:27;99911.50;;;25.51
66604;BMP280;53460;39.612;8.822;2022-07-03T00:53:55;99921.88;;;25.41
66604;BMP280;53460;39.612;8.822;2022-07-03T00:56:26;99932.72;;;25.47
66604;BMP280;53460;39.612;8.822;2022-07-03T00:58:55;99945.00;;;25.48
66604;BMP280;53460;39.612;8.822;2022-07-03T01:01:22;99941.06;;;25.35
66604;BMP280;53460;39.612;8.822;2022-07-03T01:03:57;99968.81;;;25.53
66604;BMP280;53460;39.612;8.822;2022-07-03T01:06:27;99973.53;;;25.06
66604;BMP280;53460;39.612;8.822;2022-07-03T01:08:58;99969.47;;;25.01
66604;BMP280;53460;39.612;8.822;2022-07-03T01:11:56;99953.84;;;24.95
66604;BMP280;53460;39.612;8.822;2022-07-03T01:17:06;99942.31;;;24.89
66604;BMP280;53460;39.612;8.822;2022-07-03T01:19:36;99917.13;;;24.86
66604;BMP280;53460;39.612;8.822;2022-07-03T01:25:14;99899.44;;;24.81
66604;BMP280;53460;39.612;8.822;2022-07-03T01:30:23;99874.31;;;24.70
66604;BMP280;53460;39.612;8.822;2022-07-03T01:33:03;99881.69;;;24.82
66604;BMP280;53460;39.612;8.822;2022-07-03T01:35:41;99874.09;;;24.89
66604;BMP280;53460;39.612;8.822;2022-07-03T01:38:10;99886.31;;;24.96
66604;BMP280;53460;39.612;8.822;2022-07-03T01:40:39;99886.97;;;24.94
66604;BMP280;53460;39.612;8.822;2022-07-03T01:43:08;99882.94;;;24.91
66604;BMP280;53460;39.612;8.822;2022-07-03T01:45:41;99872.81;;;24.84
66604;BMP280;53460;39.612;8.822;2022-07-03T01:48:09;99866.81;;;24.71
66604;BMP280;53460;39.612;8.822;2022-07-03T01:50:37;99869.88;;;24.43
66604;BMP280;53460;39.612;8.822;2022-07-03T01:53:04;99842.75;;;24.28
66604;BMP280;53460;39.612;8.822;2022-07-03T01:55:32;99837.31;;;24.24
66604;BMP280;53460;39.612;8.822;2022-07-03T01:57:58;99823.78;;;24.14
66604;BMP280;53460;39.612;8.822;2022-07-03T02:00:25;99819.63;;;24.21
66604;BMP280;53460;39.612;8.822;2022-07-03T02:05:29;99838.59;;;24.33
66604;BMP280;53460;39.612;8.822;2022-07-03T02:08:03;99867.22;;;24.36
66604;BMP280;53460;39.612;8.822;2022-07-03T02:10:39;99883.00;;;24.24
66604;BMP280;53460;39.612;8.822;2022-07-03T02:13:16;99893.19;;;24.27
66604;BMP280;53460;39.612;8.822;2022-07-03T02:15:43;99885.03;;;24.25
66604;BMP280;53460;39.612;8.822;2022-07-03T02:20:54;99877.59;;;24.22
66604;BMP280;53460;39.612;8.822;2022-07-03T02:23:24;99866.81;;;24.06
66604;BMP280;53460;39.612;8.822;2022-07-03T02:25:54;99851.50;;;23.66
66604;BMP280;53460;39.612;8.822;2022-07-03T02:28:36;99846.03;;;23.68
66604;BMP280;53460;39.612;8.822;2022-07-03T02:31:07;99857.63;;;23.62
66604;BMP280;53460;39.612;8.822;2022-07-03T02:33:37;99844.13;;;23.50
66604;BMP280;53460;39.612;8.822;2022-07-03T02:36:05;99837.94;;;23.53
66604;BMP280;53460;39.612;8.822;2022-07-03T02:38:34;99846.72;;;23.68
66604;BMP280;53460;39.612;8.822;2022-07-03T02:41:03;99862.91;;;23.84
66604;BMP280;53460;39.612;8.822;2022-07-03T02:52:13;99858.16;;;23.81
66604;BMP280;53460;39.612;8.822;2022-07-03T02:54:47;99841.16;;;23.80
66604;BMP280;53460;39.612;8.822;2022-07-03T02:57:16;99824.03;;;23.88
66604;BMP280;53460;39.612;8.822;2022-07-03T03:04:58;99774.44;;;23.75
66604;BMP280;53460;39.612;8.822;2022-07-03T03:07:33;99773.84;;;23.67
66604;BMP280;53460;39.612;8.822;2022-07-03T03:09:59;99784.13;;;23.60
66604;BMP280;53460;39.612;8.822;2022-07-03T03:12:36;99750.81;;;23.53
66604;BMP280;53460;39.612;8.822;2022-07-03T03:15:04;99740.44;;;23.70
66604;BMP280;53460;39.612;8.822;2022-07-03T03:17:42;99746.03;;;23.52
66604;BMP280;53460;39.612;8.822;2022-07-03T03:20:14;99745.41;;;23.49
66604;BMP280;53460;39.612;8.822;2022-07-03T03:25:12;99749.28;;;23.71
66604;BMP280;53460;39.612;8.822;2022-07-03T03:27:37;99758.19;;;23.67
66604;BMP280;53460;39.612;8.822;2022-07-03T03:30:04;99692.31;;;23.46
66604;BMP280;53460;39.612;8.822;2022-07-03T03:32:34;99697.53;;;23.71
66604;BMP280;53460;39.612;8.822;2022-07-03T03:35:00;99713.06;;;23.82
66604;BMP280;53460;39.612;8.822;2022-07-03T03:37:26;99734.81;;;23.88
66604;BMP280;53460;39.612;8.822;2022-07-03T03:39:52;99755.91;;;23.92
66604;BMP280;53460;39.612;8.822;2022-07-03T03:42:18;99762.75;;;23.91
66604;BMP280;53460;39.612;8.822;2022-07-03T03:44:44;99779.72;;;23.93
66604;BMP280;53460;39.612;8.822;2022-07-03T03:47:10;99788.53;;;23.96
66604;BMP280;53460;39.612;8.822;2022-07-03T03:49:35;99793.38;;;23.91
66604;BMP280;53460;39.612;8.822;2022-07-03T03:52:01;99791.34;;;23.90
66604;BMP280;53460;39.612;8.822;2022-07-03T03:54:27;99804.94;;;23.92
66604;BMP280;53460;39.612;8.822;2022-07-03T03:56:53;99813.81;;;23.92
66604;BMP280;53460;39.612;8.822;2022-07-03T03:59:18;99811.84;;;23.83
66604;BMP280;53460;39.612;8.822;2022-07-03T04:01:44;99758.22;;;23.63
66604;BMP280;53460;39.612;8.822;2022-07-03T04:04:11;99764.88;;;23.78
66604;BMP280;53460;39.612;8.822;2022-07-03T04:06:37;99782.47;;;23.89
66604;BMP280;53460;39.612;8.822;2022-07-03T04:09:03;99822.66;;;23.93
66604;BMP280;53460;39.612;8.822;2022-07-03T04:11:28;99849.97;;;23.87
66604;BMP280;53460;39.612;8.822;2022-07-03T04:13:54;99862.81;;;23.96
66604;BMP280;53460;39.612;8.822;2022-07-03T04:16:20;99866.84;;;24.01
66604;BMP280;53460;39.612;8.822;2022-07-03T04:18:45;99875.03;;;24.01
66604;BMP280;53460;39.612;8.822;2022-07-03T04:21:11;99876.41;;;24.00
66604;BMP280;53460;39.612;8.822;2022-07-03T04:23:37;99889.31;;;24.02
66604;BMP280;53460;39.612;8.822;2022-07-03T04:26:04;99870.34;;;23.94
66604;BMP280;53460;39.612;8.822;2022-07-03T04:28:30;99872.38;;;23.97
66604;BMP280;53460;39.612;8.822;2022-07-03T04:30:56;99867.66;;;23.88
66604;BMP280;53460;39.612;8.822;2022-07-03T04:33:21;99862.84;;;23.92
66604;BMP280;53460;39.612;8.822;2022-07-03T04:35:47;99897.00;;;23.81
66604;BMP280;53460;39.612;8.822;2022-07-03T04:38:12;99859.59;;;23.70
66604;BMP280;53460;39.612;8.822;2022-07-03T04:40:38;99857.06;;;23.49
66604;BMP280;53460;39.612;8.822;2022-07-03T04:43:04;99851.53;;;23.57
66604;BMP280;53460;39.612;8.822;2022-07-03T04:45:29;99852.16;;;23.68
66604;BMP280;53460;39.612;8.822;2022-07-03T04:47:55;99852.88;;;23.62
66604;BMP280;53460;39.612;8.822;2022-07-03T04:50:20;99869.22;;;23.62
66604;BMP280;53460;39.612;8.822;2022-07-03T04:52:46;99976.25;;;23.33
66604;BMP280;53460;39.612;8.822;2022-07-03T04:55:12;99976.94;;;23.35
66604;BMP280;53460;39.612;8.822;2022-07-03T04:57:38;99978.25;;;23.44
66604;BMP280;53460;39.612;8.822;2022-07-03T05:00:04;99990.44;;;23.57
66604;BMP280;53460;39.612;8.822;2022-07-03T05:02:31;100016.81;;;23.91
66604;BMP280;53460;39.612;8.822;2022-07-03T05:04:56;100054.22;;;24.05
66604;BMP280;53460;39.612;8.822;2022-07-03T05:07:22;100070.50;;;24.15
66604;BMP280;53460;39.612;8.822;2022-07-03T05:09:48;100070.50;;;24.13
66604;BMP280;53460;39.612;8.822;2022-07-03T05:12:13;100059.53;;;24.29
66604;BMP280;53460;39.612;8.822;2022-07-03T05:14:39;100047.09;;;24.49
66604;BMP280;53460;39.612;8.822;2022-07-03T05:17:04;100065.34;;;24.68
66604;BMP280;53460;39.612;8.822;2022-07-03T05:19:30;100122.53;;;24.81
66604;BMP280;53460;39.612;8.822;2022-07-03T05:21:56;100126.50;;;24.98
66604;BMP280;53460;39.612;8.822;2022-07-03T05:24:21;100089.16;;;24.78
66604;BMP280;53460;39.612;8.822;2022-07-03T05:26:49;100062.03;;;24.58
66604;BMP280;53460;39.612;8.822;2022-07-03T05:29:15;100072.84;;;24.68
66604;BMP280;53460;39.612;8.822;2022-07-03T05:31:41;100082.22;;;24.89
66604;BMP280;53460;39.612;8.822;2022-07-03T05:34:06;100091.13;;;24.86
66604;BMP280;53460;39.612;8.822;2022-07-03T05:36:33;100094.47;;;24.90
66604;BMP280;53460;39.612;8.822;2022-07-03T05:38:59;100079.50;;;24.87
66604;BMP280;53460;39.612;8.822;2022-07-03T05:41:54;100115.50;;;25.06
66604;BMP280;53460;39.612;8.822;2022-07-03T05:44:19;100164.38;;;25.32
66604;BMP280;53460;39.612;8.822;2022-07-03T05:46:45;100200.63;;;25.25
66604;BMP280;53460;39.612;8.822;2022-07-03T05:49:10;100218.06;;;25.60
66604;BMP280;53460;39.612;8.822;2022-07-03T05:51:36;100228.94;;;25.66
66604;BMP280;53460;39.612;8.822;2022-07-03T05:54:02;100249.41;;;25.69
66604;BMP280;53460;39.612;8.822;2022-07-03T05:56:27;100249.44;;;25.67
66604;BMP280;53460;39.612;8.822;2022-07-03T05:58:53;100251.53;;;25.65
66604;BMP280;53460;39.612;8.822;2022-07-03T06:01:19;100259.66;;;25.71
66604;BMP280;53460;39.612;8.822;2022-07-03T06:03:44;100238.16;;;25.30
66604;BMP280;53460;39.612;8.822;2022-07-03T06:06:10;100237.97;;;25.50
66604;BMP280;53460;39.612;8.822;2022-07-03T06:08:36;100240.09;;;25.44
66604;BMP280;53460;39.612;8.822;2022-07-03T06:11:01;100228.63;;;25.25
66604;BMP280;53460;39.612;8.822;2022-07-03T06:13:27;100229.09;;;25.50
66604;BMP280;53460;39.612;8.822;2022-07-03T06:15:53;100238.44;;;25.73
66604;BMP280;53460;39.612;8.822;2022-07-03T06:18:18;100252.84;;;25.68
66604;BMP280;53460;39.612;8.822;2022-07-03T06:20:44;100243.81;;;25.79
66604;BMP280;53460;39.612;8.822;2022-07-03T06:23:10;100249.75;;;26.00
66604;BMP280;53460;39.612;8.822;2022-07-03T06:25:35;100252.34;;;26.14
66604;BMP280;53460;39.612;8.822;2022-07-03T06:28:01;100251.66;;;26.14
66604;BMP280;53460;39.612;8.822;2022-07-03T06:30:26;100268.03;;;26.67
66604;BMP280;53460;39.612;8.822;2022-07-03T06:32:52;100270.00;;;27.18
66604;BMP280;53460;39.612;8.822;2022-07-03T06:35:18;100277.22;;;27.37
66604;BMP280;53460;39.612;8.822;2022-07-03T06:37:43;100277.94;;;27.34
66604;BMP280;53460;39.612;8.822;2022-07-03T06:40:09;100275.63;;;27.48
66604;BMP280;53460;39.612;8.822;2022-07-03T06:42:35;100277.78;;;27.81
66604;BMP280;53460;39.612;8.822;2022-07-03T06:45:02;100270.63;;;27.96
66604;BMP280;53460;39.612;8.822;2022-07-03T06:47:27;100278.88;;;27.94
66604;BMP280;53460;39.612;8.822;2022-07-03T06:49:53;100283.66;;;28.28
66604;BMP280;53460;39.612;8.822;2022-07-03T06:52:19;100272.06;;;28.26
66604;BMP280;53460;39.612;8.822;2022-07-03T06:54:44;100276.41;;;28.48
66604;BMP280;53460;39.612;8.822;2022-07-03T06:57:13;100282.50;;;29.08
66604;BMP280;53460;39.612;8.822;2022-07-03T06:59:39;100286.66;;;29.34
66604;BMP280;53460;39.612;8.822;2022-07-03T07:02:05;100266.84;;;29.02
66604;BMP280;53460;39.612;8.822;2022-07-03T07:04:31;100283.53;;;29.48
66604;BMP280;53460;39.612;8.822;2022-07-03T07:06:57;100281.31;;;30.27
66604;BMP280;53460;39.612;8.822;2022-07-03T07:09:23;100279.66;;;30.57
66604;BMP280;53460;39.612;8.822;2022-07-03T07:11:48;100280.72;;;30.45
66604;BMP280;53460;39.612;8.822;2022-07-03T07:14:14;100281.78;;;30.33
66604;BMP280;53460;39.612;8.822;2022-07-03T07:16:39;100283.69;;;30.16
66604;BMP280;53460;39.612;8.822;2022-07-03T07:19:05;100282.88;;;30.42
66604;BMP280;53460;39.612;8.822;2022-07-03T07:21:31;100291.97;;;31.22
66604;BMP280;53460;39.612;8.822;2022-07-03T07:23:56;100284.19;;;31.47
66604;BMP280;53460;39.612;8.822;2022-07-03T07:26:22;100287.00;;;31.26
66604;BMP280;53460;39.612;8.822;2022-07-03T07:28:47;100284.63;;;31.54
66604;BMP280;53460;39.612;8.822;2022-07-03T07:31:13;100276.69;;;31.25
66604;BMP280;53460;39.612;8.822;2022-07-03T07:33:39;100268.59;;;31.40
66604;BMP280;53460;39.612;8.822;2022-07-03T07:36:04;100267.16;;;31.22
66604;BMP280;53460;39.612;8.822;2022-07-03T07:38:30;100264.72;;;31.33
66604;BMP280;53460;39.612;8.822;2022-07-03T07:40:56;100261.31;;;31.88
66604;BMP280;53460;39.612;8.822;2022-07-03T07:43:22;100256.63;;;31.66
66604;BMP280;53460;39.612;8.822;2022-07-03T07:45:47;100255.94;;;31.65
66604;BMP280;53460;39.612;8.822;2022-07-03T07:48:13;100243.66;;;32.33
66604;BMP280;53460;39.612;8.822;2022-07-03T07:50:39;100250.13;;;32.44
66604;BMP280;53460;39.612;8.822;2022-07-03T07:53:05;100238.38;;;32.60
66604;BMP280;53460;39.612;8.822;2022-07-03T07:55:30;100244.75;;;32.57
66604;BMP280;53460;39.612;8.822;2022-07-03T07:57:56;100247.81;;;32.99
66604;BMP280;53460;39.612;8.822;2022-07-03T08:00:21;100248.28;;;33.03
66604;BMP280;53460;39.612;8.822;2022-07-03T08:02:47;100237.13;;;32.57
66604;BMP280;53460;39.612;8.822;2022-07-03T08:05:32;100237.47;;;32.33
66604;BMP280;53460;39.612;8.822;2022-07-03T08:08:11;100238.28;;;32.29
66604;BMP280;53460;39.612;8.822;2022-07-03T08:10:48;100244.09;;;32.73
66604;BMP280;53460;39.612;8.822;2022-07-03T08:13:15;100248.88;;;33.37
66604;BMP280;53460;39.612;8.822;2022-07-03T08:15:42;100242.88;;;33.47
66604;BMP280;53460;39.612;8.822;2022-07-03T08:18:08;100242.44;;;33.72
66604;BMP280;53460;39.612;8.822;2022-07-03T08:20:35;100257.44;;;33.92
66604;BMP280;53460;39.612;8.822;2022-07-03T08:23:02;100249.78;;;33.78
66604;BMP280;53460;39.612;8.822;2022-07-03T08:25:28;100250.53;;;33.62
66604;BMP280;53460;39.612;8.822;2022-07-03T08:27:55;100255.31;;;34.07
66604;BMP280;53460;39.612;8.822;2022-07-03T08:30:21;100258.47;;;33.99
66604;BMP280;53460;39.612;8.822;2022-07-03T08:32:48;100287.38;;;33.27
66604;BMP280;53460;39.612;8.822;2022-07-03T08:35:15;100287.44;;;32.93
66604;BMP280;53460;39.612;8.822;2022-07-03T08:37:41;100307.91;;;32.67
66604;BMP280;53460;39.612;8.822;2022-07-03T08:40:09;100322.47;;;33.16
66604;BMP280;53460;39.612;8.822;2022-07-03T08:42:37;100341.72;;;33.66
66604;BMP280;53460;39.612;8.822;2022-07-03T08:45:06;100328.28;;;33.87
66604;BMP280;53460;39.612;8.822;2022-07-03T08:47:32;100311.69;;;33.41
66604;BMP280;53460;39.612;8.822;2022-07-03T08:50:00;100316.53;;;33.72
66604;BMP280;53460;39.612;8.822;2022-07-03T08:52:26;100315.50;;;33.79
66604;BMP280;53460;39.612;8.822;2022-07-03T08:54:52;100319.09;;;33.30
66604;BMP280;53460;39.612;8.822;2022-07-03T08:57:18;100349.69;;;34.03
66604;BMP280;53460;39.612;8.822;2022-07-03T08:59:46;100339.84;;;33.91
66604;BMP280;53460;39.612;8.822;2022-07-03T09:02:16;100323.97;;;33.13
66604;BMP280;53460;39.612;8.822;2022-07-03T09:04:42;100301.28;;;33.10
66604;BMP280;53460;39.612;8.822;2022-07-03T09:07:09;100299.00;;;32.98
66604;BMP280;53460;39.612;8.822;2022-07-03T09:09:36;100306.28;;;33.05
66604;BMP280;53460;39.612;8.822;2022-07-03T09:12:03;100300.88;;;32.87
66604;BMP280;53460;39.612;8.822;2022-07-03T09:14:29;100289.47;;;32.95
66604;BMP280;53460;39.612;8.822;2022-07-03T09:16:54;100292.38;;;33.07
66604;BMP280;53460;39.612;8.822;2022-07-03T09:19:47;100296.53;;;33.54
66604;BMP280;53460;39.612;8.822;2022-07-03T09:24:51;100315.09;;;34.31
66604;BMP280;53460;39.612;8.822;2022-07-03T09:27:19;100323.69;;;34.82
66604;BMP280;53460;39.612;8.822;2022-07-03T09:35:26;100339.19;;;35.44
66604;BMP280;53460;39.612;8.822;2022-07-03T09:37:59;100334.19;;;35.97
66604;BMP280;53460;39.612;8.822;2022-07-03T09:40:28;100329.94;;;36.23
66604;BMP280;53460;39.612;8.822;2022-07-03T09:43:05;100326.97;;;36.15
66604;BMP280;53460;39.612;8.822;2022-07-03T09:45:51;100322.56;;;35.57
66604;BMP280;53460;39.612;8.822;2022-07-03T09:50:49;100308.06;;;35.16
66604;BMP280;53460;39.612;8.822;2022-07-03T09:53:14;100308.34;;;35.75
66604;BMP280;53460;39.612;8.822;2022-07-03T09:55:41;100317.44;;;35.61
66604;BMP280;53460;39.612;8.822;2022-07-03T09:58:07;100313.88;;;35.50
66604;BMP280;53460;39.612;8.822;2022-07-03T10:00:33;100321.25;;;35.16
66604;BMP280;53460;39.612;8.822;2022-07-03T10:08:07;100327.06;;;35.37
66604;BMP280;53460;39.612;8.822;2022-07-03T10:10:38;100333.50;;;35.33
66604;BMP280;53460;39.612;8.822;2022-07-03T10:13:05;100339.78;;;35.84
66604;BMP280;53460;39.612;8.822;2022-07-03T10:15:32;100325.09;;;36.11
66604;BMP280;53460;39.612;8.822;2022-07-03T10:18:01;100321.09;;;35.83
66604;BMP280;53460;39.612;8.822;2022-07-03T10:20:28;100323.66;;;35.62
66604;BMP280;53460;39.612;8.822;2022-07-03T10:22:55;100328.63;;;35.47
66604;BMP280;53460;39.612;8.822;2022-07-03T10:25:23;100322.09;;;36.03
66604;BMP280;53460;39.612;8.822;2022-07-03T10:27:49;100314.56;;;35.63
66604;BMP280;53460;39.612;8.822;2022-07-03T10:30:17;100315.53;;;35.45
66604;BMP280;53460;39.612;8.822;2022-07-03T10:32:46;100312.34;;;35.13
66604;BMP280;53460;39.612;8.822;2022-07-03T10:35:14;100308.84;;;35.15
66604;BMP280;53460;39.612;8.822;2022-07-03T10:38:06;100312.53;;;34.97
66604;BMP280;53460;39.612;8.822;2022-07-03T10:41:02;100320.31;;;35.34
66604;BMP280;53460;39.612;8.822;2022-07-03T10:43:50;100320.66;;;35.41
66604;BMP280;53460;39.612;8.822;2022-07-03T10:46:35;100309.00;;;35.51
66604;BMP280;53460;39.612;8.822;2022-07-03T10:49:09;100307.88;;;35.06
66604;BMP280;53460;39.612;8.822;2022-07-03T11:02:24;100313.00;;;36.40
66604;BMP280;53460;39.612;8.822;2022-07-03T11:07:44;100302.94;;;36.81
66604;BMP280;53460;39.612;8.822;2022-07-03T11:12:59;100302.09;;;36.13
66604;BMP280;53460;39.612;8.822;2022-07-03T11:23:28;100291.22;;;36.91
66604;BMP280;53460;39.612;8.822;2022-07-03T11:38:48;100263.97;;;37.49
66604;BMP280;53460;39.612;8.822;2022-07-03T11:41:14;100254.97;;;37.69
66604;BMP280;53460;39.612;8.822;2022-07-03T11:43:51;100253.22;;;38.27
66604;BMP280;53460;39.612;8.822;2022-07-03T11:46:18;100239.69;;;38.00
66604;BMP280;53460;39.612;8.822;2022-07-03T11:48:44;100239.31;;;37.74
66604;BMP280;53460;39.612;8.822;2022-07-03T11:51:10;100229.72;;;37.29
66604;BMP280;53460;39.612;8.822;2022-07-03T11:53:38;100236.66;;;37.51
66604;BMP280;53460;39.612;8.822;2022-07-03T11:56:10;100229.13;;;37.16
66604;BMP280;53460;39.612;8.822;2022-07-03T11:59:08;100228.22;;;37.19
66604;BMP280;53460;39.612;8.822;2022-07-03T12:01:35;100232.28;;;37.54
66604;BMP280;53460;39.612;8.822;2022-07-03T12:04:17;100215.28;;;37.69
66604;BMP280;53460;39.612;8.822;2022-07-03T12:06:51;100214.00;;;37.02
66604;BMP280;53460;39.612;8.822;2022-07-03T12:09:32;100206.25;;;37.79
66604;BMP280;53460;39.612;8.822;2022-07-03T12:12:23;100213.78;;;38.02
66604;BMP280;53460;39.612;8.822;2022-07-03T12:14:50;100236.50;;;38.57
66604;BMP280;53460;39.612;8.822;2022-07-03T12:17:21;100236.88;;;38.92
66604;BMP280;53460;39.612;8.822;2022-07-03T12:22:29;100241.03;;;39.31
66604;BMP280;53460;39.612;8.822;2022-07-03T12:27:33;100243.41;;;38.58
66604;BMP280;53460;39.612;8.822;2022-07-03T12:29:59;100243.16;;;38.01
66604;BMP280;53460;39.612;8.822;2022-07-03T12:32:26;100228.28;;;37.51
66604;BMP280;53460;39.612;8.822;2022-07-03T12:34:52;100238.09;;;37.93
66604;BMP280;53460;39.612;8.822;2022-07-03T12:37:31;100238.78;;;38.55
66604;BMP280;53460;39.612;8.822;2022-07-03T12:39:58;100240.03;;;38.37
66604;BMP280;53460;39.612;8.822;2022-07-03T12:42:24;100242.09;;;37.74
66604;BMP280;53460;39.612;8.822;2022-07-03T12:45:01;100241.28;;;37.97
66604;BMP280;53460;39.612;8.822;2022-07-03T12:47:27;100247.63;;;37.43
66604;BMP280;53460;39.612;8.822;2022-07-03T12:50:02;100241.69;;;37.04
66604;BMP280;53460;39.612;8.822;2022-07-03T12:52:32;100240.38;;;36.69
66604;BMP280;53460;39.612;8.822;2022-07-03T12:54:59;100240.41;;;36.57
66604;BMP280;53460;39.612;8.822;2022-07-03T12:57:26;100244.97;;;36.39
66604;BMP280;53460;39.612;8.822;2022-07-03T13:00:18;100240.78;;;36.27
66604;BMP280;53460;39.612;8.822;2022-07-03T13:02:47;100250.09;;;36.34
66604;BMP280;53460;39.612;8.822;2022-07-03T13:05:20;100251.72;;;36.42
66604;BMP280;53460;39.612;8.822;2022-07-03T13:07:48;100250.28;;;36.43
66604;BMP280;53460;39.612;8.822;2022-07-03T13:10:14;100255.44;;;36.62
66604;BMP280;53460;39.612;8.822;2022-07-03T13:12:57;100251.41;;;36.00
66604;BMP280;53460;39.612;8.822;2022-07-03T13:15:29;100257.34;;;35.94
66604;BMP280;53460;39.612;8.822;2022-07-03T13:20:24;100256.13;;;35.40
66604;BMP280;53460;39.612;8.822;2022-07-03T13:22:51;100267.44;;;35.23
66604;BMP280;53460;39.612;8.822;2022-07-03T13:25:17;100280.19;;;35.31
66604;BMP280;53460;39.612;8.822;2022-07-03T13:27:43;100281.44;;;35.34
66604;BMP280;53460;39.612;8.822;2022-07-03T13:30:11;100268.56;;;35.28
66604;BMP280;53460;39.612;8.822;2022-07-03T13:32:37;100280.44;;;35.39
66604;BMP280;53460;39.612;8.822;2022-07-03T13:35:04;100282.09;;;35.47
66604;BMP280;53460;39.612;8.822;2022-07-03T13:37:29;100291.41;;;35.16
66604;BMP280;53460;39.612;8.822;2022-07-03T13:39:55;100281.72;;;35.15
66604;BMP280;53460;39.612;8.822;2022-07-03T13:42:21;100269.59;;;34.68
66604;BMP280;53460;39.612;8.822;2022-07-03T13:44:46;100268.56;;;34.34
66604;BMP280;53460;39.612;8.822;2022-07-03T13:47:12;100288.94;;;33.99
66604;BMP280;53460;39.612;8.822;2022-07-03T13:49:38;100282.13;;;33.96
66604;BMP280;53460;39.612;8.822;2022-07-03T13:52:04;100284.72;;;33.71
66604;BMP280;53460;39.612;8.822;2022-07-03T13:54:30;100276.09;;;33.47
66604;BMP280;53460;39.612;8.822;2022-07-03T13:56:55;100283.06;;;33.46
66604;BMP280;53460;39.612;8.822;2022-07-03T13:59:21;100276.56;;;33.52
66604;BMP280;53460;39.612;8.822;2022-07-03T14:01:47;100285.22;;;33.29
66604;BMP280;53460;39.612;8.822;2022-07-03T14:04:13;100292.56;;;33.35
66604;BMP280;53460;39.612;8.822;2022-07-03T14:06:39;100281.38;;;33.83
66604;BMP280;53460;39.612;8.822;2022-07-03T14:09:05;100297.72;;;33.89
66604;BMP280;53460;39.612;8.822;2022-07-03T14:11:30;100309.09;;;33.97
66604;BMP280;53460;39.612;8.822;2022-07-03T14:13:56;100302.56;;;33.88
66604;BMP280;53460;39.612;8.822;2022-07-03T14:16:22;100301.34;;;34.15
66604;BMP280;53460;39.612;8.822;2022-07-03T14:18:48;100307.84;;;34.09
66604;BMP280;53460;39.612;8.822;2022-07-03T14:21:13;100311.09;;;34.14
66604;BMP280;53460;39.612;8.822;2022-07-03T14:23:39;100304.59;;;33.90
66604;BMP280;53460;39.612;8.822;2022-07-03T14:26:05;100302.50;;;34.20
66604;BMP280;53460;39.612;8.822;2022-07-03T14:28:30;100303.63;;;34.39
66604;BMP280;53460;39.612;8.822;2022-07-03T14:31:15;100310.72;;;34.22
66604;BMP280;53460;39.612;8.822;2022-07-03T14:33:53;100309.34;;;34.21
66604;BMP280;53460;39.612;8.822;2022-07-03T14:36:20;100301.03;;;33.62
66604;BMP280;53460;39.612;8.822;2022-07-03T14:38:46;100308.22;;;34.16
66604;BMP280;53460;39.612;8.822;2022-07-03T14:41:12;100299.13;;;33.88
66604;BMP280;53460;39.612;8.822;2022-07-03T14:43:38;100295.91;;;34.27
66604;BMP280;53460;39.612;8.822;2022-07-03T14:46:03;100297.50;;;34.37
66604;BMP280;53460;39.612;8.822;2022-07-03T14:48:29;100297.69;;;34.18
66604;BMP280;53460;39.612;8.822;2022-07-03T14:50:55;100283.28;;;34.30
66604;BMP280;53460;39.612;8.822;2022-07-03T14:53:21;100274.66;;;34.36
66604;BMP280;53460;39.612;8.822;2022-07-03T14:55:48;100263.31;;;34.28
66604;BMP280;53460;39.612;8.822;2022-07-03T14:58:19;100268.44;;;34.36
66604;BMP280;53460;39.612;8.822;2022-07-03T15:00:49;100267.97;;;34.31
66604;BMP280;53460;39.612;8.822;2022-07-03T15:05:47;100254.72;;;34.19
66604;BMP280;53460;39.612;8.822;2022-07-03T15:11:43;100248.50;;;34.33
66604;BMP280;53460;39.612;8.822;2022-07-03T15:14:03;100243.88;;;34.15
66604;BMP280;53460;39.612;8.822;2022-07-03T15:16:31;100241.22;;;34.26
66604;BMP280;53460;39.612;8.822;2022-07-03T15:19:00;100240.38;;;34.29
66604;BMP280;53460;39.612;8.822;2022-07-03T15:21:31;100234.63;;;34.33
66604;BMP280;53460;39.612;8.822;2022-07-03T15:24:01;100231.34;;;34.43
66604;BMP280;53460;39.612;8.822;2022-07-03T15:26:29;100233.41;;;34.58
66604;BMP280;53460;39.612;8.822;2022-07-03T15:28:57;100233.69;;;34.52
66604;BMP280;53460;39.612;8.822;2022-07-03T15:31:25;100226.22;;;34.35
66604;BMP280;53460;39.612;8.822;2022-07-03T15:33:51;100229.00;;;34.63
66604;BMP280;53460;39.612;8.822;2022-07-03T15:36:18;100214.72;;;34.43
66604;BMP280;53460;39.612;8.822;2022-07-03T15:38:56;100225.00;;;34.60
66604;BMP280;53460;39.612;8.822;2022-07-03T15:41:27;100219.06;;;34.40
66604;BMP280;53460;39.612;8.822;2022-07-03T15:49:42;100217.16;;;34.64